METAR AND TAF INFORMATION
METAR FOR LUKK
ADDS - METARS form results

(0408 UTC 26 February 2020)
Data provider http://aviationweather.gov/metar/data/
 
METAR text: LUKK 260400Z 20004KT CAVOK 04/M00 Q1000 R08/D NOSIG
Conditions at: LUKK (CHISINAU INTL , MD) observed 0400 UTC 26 February 2020
Temperature: 4.0°C (39°F)
Dewpoint: 0.0°C (32°F) [RH = 75%]
Pressure (altimeter): 29.53 inches Hg (1000.0 mb)
Winds: from the SSW (200 degrees) at 5 MPH (4 knots; 2.1 m/s)
Visibility: 6 or more miles (10+ km)
Ceiling: ceiling and visibility are OK
Clouds: unknown
Weather: no significant weather observed at this time

METAR text: LUKK 260330Z 16003KT CAVOK 03/M01 Q1000 R08/D NOSIG
Conditions at: LUKK (CHISINAU INTL , MD) observed 0330 UTC 26 February 2020
Temperature: 3.0°C (37°F)
Dewpoint: -1.0°C (30°F) [RH = 75%]
Pressure (altimeter): 29.53 inches Hg (1000.0 mb)
Winds: from the SSE (160 degrees) at 3 MPH (3 knots; 1.5 m/s)
Visibility: 6 or more miles (10+ km)
Ceiling: ceiling and visibility are OK
Clouds: unknown
Weather: no significant weather observed at this time

Forecast for: LUKK (CHISINAU INTL , MD)
Text: TAF LUKK 252320Z 2600/2624 20008KT CAVOK
Forecast period: 0000 UTC 26 February 2020 to 0000 UTC 27 February 2020
Forecast type: FROM: standard forecast or significant change
Winds: from the SSW (200 degrees) at 9 MPH (8 knots; 4.1 m/s)
Visibility: 6 or more miles 10+ km)
Ceiling: unknown
Clouds: missing
Weather: NSW  (no significant weather)

 AIRPORT MAP

 RUNWAY INFORMATION
Runway 08 Runway length 11779 ft Runway width 145 ft
Runway elevation 399 ft Runway displaced threshold 0 ft Runway heading 88
Runway 26 Runway length 11779 ft Runway width 145 ft
Runway elevation 279 ft Runway displaced threshold 0 ft Runway heading 268

 AIRPORT FREQUENCIES
Type APP Name APP Frequency 125.9 MHZ
Type ATIS Name ATIS Frequency 133.7 MHZ
Type GND Name GND Frequency 121.8 MHZ
Type TWR Name TWR Frequency 118.1 MHZ

 AIRPORT NEAR NAVIGATION AIDS
Type VOR-DME Name Chisinau Frequency 113700 KHZ



Powered by Virtual Airlines Manager [v2.6.2]